Terminal Aerodrome Forecast
Issued by NWS

Home | Current Version | Previous Version | Graphics & Text | Print | Product List | Glossary On
Versions: 1 2 3 4 5 6 7 8 9 10 11 12 13 14 15 16 17 18
774
FTUS43 KMPX 262346
TAFAXN
TAF
KAXN 262346Z 2700/2724 21007KT P6SM FEW040 BKN250
     FM270500 16005KT P6SM BKN100
     FM271100 15006KT P6SM VCSH SCT040 OVC080
     FM271500 16010KT P6SM BKN050=

USA.gov is the U.S. government's official web portal to all federal, state and local government web resources and services.